Bookmark and Share
Track history (hours):
 

Sansumifuku

Last reported at 2014-Apr-20 23:13 UTC. Time now 2014-Apr-23 12:49 UTC.
Position N 34°54' E 139°35'.

Length 75 m; draft 4.3 m.

Type: Cargo ship. MMSI: 431000426.

NotesDate/timePositionNaut miles runAvg speedWind from/ knotsBaromVisibWave heightAir tempDewpointWater temp
2014-Apr-20 23:13N 34°54' E 139°35'26 8.9
2014-Apr-20 20:16N 34°57' E 140°07'810.1
2014-Apr-20 19:29N 35°02' E 140°14'58 9.3
2014-Apr-20 13:13N 35°55' E 140°46'4 6.2
2014-Apr-20 12:32N 35°55' E 140°41'1 0.0
2014-Apr-19 16:16N 35°56' E 140°40'63 8.0
2014-Apr-19 08:23N 34°59' E 140°07'911.0
2014-Apr-19 07:32N 34°54' E 139°58'12 8.9
2014-Apr-19 06:14N 34°57' E 139°44'811.8
2014-Apr-19 05:33N 35°05' E 139°44'1312.7
2014-Apr-19 04:33N 35°18' E 139°44'1110.8
2014-Apr-19 03:33N 35°28' E 139°48'1312.8
2014-Apr-19 02:33N 35°38' E 139°58'4 3.6
2014-Apr-19 01:33N 35°41' E 139°57'0 0.0
2014-Apr-19 00:33N 35°41' E 139°57'0 0.0
2014-Apr-18 23:33N 35°41' E 139°57'0 0.0
2014-Apr-18 22:30N 35°41' E 139°57'0 0.0
2014-Apr-18 21:27N 35°41' E 139°57'0 0.0
2014-Apr-18 20:24N 35°41' E 139°57'0 0.0
2014-Apr-18 19:30N 35°41' E 139°57'0 0.0
2014-Apr-18 18:27N 35°41' E 139°57'0 0.0
2014-Apr-18 17:33N 35°41' E 139°57'0 0.0
2014-Apr-18 16:30N 35°41' E 139°57'0 0.0
2014-Apr-18 15:33N 35°41' E 139°57'0 0.0
2014-Apr-18 14:30N 35°41' E 139°57'0 0.0
2014-Apr-18 13:33N 35°41' E 139°57'0 0.0
2014-Apr-18 12:33N 35°41' E 139°57'0 0.0
2014-Apr-18 11:33N 35°41' E 139°57'0 0.0
2014-Apr-18 10:27N 35°41' E 139°57'0 0.0
2014-Apr-18 09:21N 35°41' E 139°57'0 0.0
2014-Apr-18 08:24N 35°41' E 139°57'0 0.0
2014-Apr-18 07:30N 35°41' E 139°57'0 0.0
2014-Apr-18 06:33N 35°41' E 139°57'0 0.0
2014-Apr-18 05:33N 35°41' E 139°57'0 0.0
2014-Apr-18 04:33N 35°41' E 139°57'0 0.0
2014-Apr-18 03:33N 35°41' E 139°57'0 0.0
2014-Apr-18 02:24N 35°41' E 139°57'0 0.0
2014-Apr-18 01:30N 35°41' E 139°57'0 0.0
2014-Apr-18 00:33N 35°41' E 139°57'0 0.0
2014-Apr-17 23:30N 35°41' E 139°57'0 0.0
2014-Apr-17 22:33N 35°41' E 139°57'4 3.9
2014-Apr-17 21:31N 35°37' E 139°58'0 0.0
2014-Apr-17 20:31N 35°37' E 139°58'0 0.0
2014-Apr-17 19:28N 35°37' E 139°58'0 0.0
2014-Apr-17 18:31N 35°37' E 139°58'0 0.0
2014-Apr-17 17:28N 35°37' E 139°58'0 0.0
2014-Apr-17 16:28N 35°37' E 139°58'0 0.0
2014-Apr-17 15:31N 35°37' E 139°58'0 0.0
2014-Apr-17 14:31N 35°37' E 139°58'0 0.0
2014-Apr-17 13:31N 35°37' E 139°58'0 0.0
2014-Apr-17 12:31N 35°37' E 139°58'0 0.0
2014-Apr-17 11:31N 35°37' E 139°58'0 0.0
2014-Apr-17 10:28N 35°37' E 139°58'0 0.0
2014-Apr-17 09:25N 35°37' E 139°58'0 0.0
2014-Apr-17 08:25N 35°37' E 139°58'0 0.0
2014-Apr-17 07:31N 35°37' E 139°58'8 7.7
2014-Apr-17 06:32N 35°31' E 139°54'1111.8
2014-Apr-17 05:33N 35°22' E 139°45'1111.3
2014-Apr-17 04:33N 35°10' E 139°46'1111.3
2014-Apr-17 03:33N 35°02' E 139°37'  

Dump ship's entire track history

sailing weather and tide predictions

Sansumifuku — JD2579 — position and weather